This is the latest recevied weather packets stored in our database for station/object KC1OEK-13. If no packets are shown the sender has not sent any weather packets the latest 10 day(s).
| Time | Temp. | Humidity | Pressure | Rain* | Wind** | Luminosity | Snow |
|---|---|---|---|---|---|---|---|
| 1777604857 | 7.78° C | 79% | 1010.8 hPa | 0 mm | - | 0 W/m² | - |
| 1777604554 | 7.22° C | 82% | 1011 hPa | 0 mm | - | 0 W/m² | - |
| 1777604250 | 6.67° C | 91% | 1010.8 hPa | 0 mm | - | 0 W/m² | - |
| 1777603945 | 6.67° C | 91% | 1010.9 hPa | 0 mm | - | 0 W/m² | - |
| 1777603643 | 6.67° C | 92% | 1010.7 hPa | 0 mm | - | 0 W/m² | - |
| 1777603339 | 6.67° C | 91% | 1010.7 hPa | 0 mm | - | 0 W/m² | - |
| 1777603034 | 7.22° C | 92% | 1010.9 hPa | 0 mm | - | 0 W/m² | - |
| 1777602729 | 6.67° C | 94% | 1010.8 hPa | 0 mm | - | 0 W/m² | - |
| 1777602424 | 6.67° C | 95% | 1010.7 hPa | 0 mm | - | 0 W/m² | - |
| 1777602121 | 6.67° C | 95% | 1010.9 hPa | 0 mm | - | 0 W/m² | - |
| 1777600297 | 8.33° C | 95% | 1010.4 hPa | 0 mm | - | 0 W/m² | - |
| 1777586321 | 11.11° C | 90% | 1008.7 hPa | 3.05 mm | - | 38 W/m² | - |
| 1777583898 | 12.78° C | 84% | 1007.8 hPa | 0 mm | - | 88 W/m² | - |
| 1777582988 | 12.78° C | 82% | 1007.7 hPa | 0 mm | - | 34 W/m² | - |
| 1777579951 | 12.78° C | 82% | 1007.6 hPa | 0 mm | - | 109 W/m² | - |
| 1777578435 | 12.78° C | 82% | 1007.6 hPa | 0 mm | - | 57 W/m² | - |
| 1777575091 | 13.33° C | 83% | 1007.7 hPa | 0 mm | - | 88 W/m² | - |
| 1777574485 | 13.33° C | 80% | 1007.8 hPa | 0 mm | - | 65 W/m² | - |
| 1777573571 | 13.89° C | 80% | 1007.6 hPa | 0 mm | - | 177 W/m² | - |
| 1777572660 | 12.78° C | 85% | 1007.7 hPa | 0 mm | - | 265 W/m² | - |
| 1777572359 | 12.78° C | 87% | 1007.8 hPa | 0 mm | - | 174 W/m² | - |
| 1777572056 | 12.78° C | 87% | 1007.7 hPa | 0 mm | - | 111 W/m² | - |
| 1777571756 | 12.22° C | 85% | 1007.7 hPa | 0 mm | - | 220 W/m² | - |
| 1777571454 | 12.78° C | 87% | 1007.7 hPa | 0 mm | - | 210 W/m² | - |
| 1777570239 | 12.22° C | 87% | 1007.6 hPa | 0 mm | - | 112 W/m² | - |
* Rain latest hour (hover to see other rain measurements)
** Current wind speed in m/s (hover to see current wind gust speed)